createdAt,value
2023-03-03T00:01:26.305Z,20.88
2023-03-03T00:03:55.546Z,20.70
2023-03-03T00:06:25.561Z,22.42
2023-03-03T00:08:55.027Z,23.00
2023-03-03T00:13:54.695Z,21.75
2023-03-03T00:16:28.357Z,21.02
2023-03-03T00:18:55.806Z,20.85
2023-03-03T00:21:32.522Z,21.45
2023-03-03T00:24:16.060Z,21.25
2023-03-03T00:26:47.565Z,22.02
2023-03-03T00:29:28.805Z,22.50
2023-03-03T00:31:55.957Z,21.45
2023-03-03T00:34:28.205Z,21.48
2023-03-03T00:36:56.636Z,22.10
2023-03-03T00:39:32.247Z,22.70
2023-03-03T00:42:04.442Z,22.35
2023-03-03T00:44:43.821Z,21.92
2023-03-03T00:50:07.580Z,22.40
2023-03-03T00:52:39.911Z,22.77
2023-03-03T00:55:08.167Z,22.00
2023-03-03T00:57:37.754Z,23.98
2023-03-03T01:00:10.490Z,23.42
2023-03-03T01:02:37.444Z,23.45
2023-03-03T01:05:06.781Z,22.52
2023-03-03T01:07:36.062Z,22.40
2023-03-03T01:10:02.928Z,22.58
2023-03-03T01:12:29.815Z,22.17
2023-03-03T01:14:57.817Z,24.73
2023-03-03T01:17:24.696Z,21.95
2023-03-03T01:19:53.713Z,23.42
2023-03-03T01:22:20.583Z,24.73
2023-03-03T01:24:49.710Z,23.58
2023-03-03T01:27:17.621Z,22.50
2023-03-03T01:29:49.873Z,22.80
2023-03-03T01:32:16.760Z,24.10
2023-03-03T01:34:43.584Z,24.67
2023-03-03T01:37:12.460Z,24.65
2023-03-03T01:39:39.217Z,25.15
2023-03-03T01:42:06.145Z,23.52
2023-03-03T01:44:33.236Z,23.83
2023-03-03T01:47:21.805Z,24.00
2023-03-03T01:49:59.920Z,25.02
2023-03-03T01:52:32.714Z,22.88
2023-03-03T01:55:10.246Z,23.65
2023-03-03T01:57:44.311Z,23.98
2023-03-03T02:00:16.407Z,24.75
2023-03-03T02:02:45.015Z,24.27
2023-03-03T02:05:15.286Z,24.90
2023-03-03T02:07:44.191Z,25.08
2023-03-03T02:10:14.112Z,26.07
2023-03-03T02:12:53.800Z,25.25
2023-03-03T02:15:36.167Z,24.88
2023-03-03T02:18:09.691Z,25.15
2023-03-03T02:20:45.872Z,25.23
2023-03-03T02:23:31.447Z,25.02
2023-03-03T02:25:59.298Z,25.08
2023-03-03T02:28:34.539Z,25.27
2023-03-03T02:31:11.004Z,25.20
2023-03-03T02:33:42.253Z,26.15
2023-03-03T02:36:32.428Z,25.02
2023-03-03T02:39:27.236Z,26.05
2023-03-03T02:42:13.410Z,25.70
2023-03-03T02:44:44.695Z,25.60
2023-03-03T02:47:13.642Z,25.00
2023-03-03T02:49:40.487Z,26.00
2023-03-03T02:52:12.165Z,25.13
2023-03-03T02:54:41.620Z,24.35
2023-03-03T02:57:09.463Z,26.90
2023-03-03T02:59:38.341Z,23.75
2023-03-03T03:02:10.468Z,24.92
2023-03-03T03:04:37.382Z,26.20
2023-03-03T03:07:05.117Z,25.95
2023-03-03T03:09:34.349Z,26.40
2023-03-03T03:12:05.418Z,25.38
2023-03-03T03:14:39.690Z,22.42
2023-03-03T03:17:08.852Z,24.95
2023-03-03T03:19:35.772Z,25.55
2023-03-03T03:22:03.090Z,25.35
2023-03-03T03:24:36.022Z,24.20
2023-03-03T03:27:07.101Z,24.40
2023-03-03T03:29:36.107Z,25.23
2023-03-03T03:32:05.283Z,23.60
2023-03-03T03:34:32.376Z,23.23
2023-03-03T03:36:59.974Z,23.35
2023-03-03T03:39:28.379Z,23.55
2023-03-03T03:41:56.075Z,22.73
2023-03-03T03:44:24.410Z,23.27
2023-03-03T03:46:52.101Z,23.17
2023-03-03T03:49:20.936Z,21.90
2023-03-03T03:51:52.517Z,22.67
2023-03-03T03:54:22.956Z,22.77
2023-03-03T03:56:54.517Z,23.42
2023-03-03T03:59:24.389Z,22.55
2023-03-03T04:01:52.068Z,24.10
2023-03-03T04:04:20.711Z,22.17
2023-03-03T04:06:47.982Z,23.40
2023-03-03T04:09:15.283Z,23.85
2023-03-03T04:11:45.759Z,23.42
2023-03-03T04:14:13.756Z,23.80
2023-03-03T04:16:43.134Z,23.75
2023-03-03T04:19:12.602Z,23.80
2023-03-03T04:21:42.087Z,24.60
2023-03-03T04:24:09.074Z,24.80
2023-03-03T04:26:37.547Z,24.53
2023-03-03T04:29:10.988Z,25.38
2023-03-03T04:31:41.197Z,25.48
2023-03-03T04:34:09.758Z,26.90
2023-03-03T04:36:36.982Z,25.95
2023-03-03T04:41:37.929Z,25.40
2023-03-03T04:44:13.906Z,24.35
2023-03-03T04:47:05.610Z,24.67
2023-03-03T04:49:37.129Z,24.48
2023-03-03T04:52:10.411Z,26.33
2023-03-03T04:54:38.350Z,24.90
2023-03-03T04:57:13.438Z,25.98
2023-03-03T04:59:43.636Z,25.20
2023-03-03T05:02:16.991Z,24.80
2023-03-03T05:04:52.005Z,23.45
2023-03-03T05:07:28.992Z,22.42
2023-03-03T05:09:55.760Z,22.88
2023-03-03T05:12:32.629Z,23.92
2023-03-03T05:15:15.472Z,25.08
2023-03-03T05:17:55.442Z,24.63
2023-03-03T05:20:29.611Z,24.52
2023-03-03T05:23:01.737Z,24.65
2023-03-03T05:25:36.592Z,23.63
2023-03-03T05:28:06.972Z,24.27
2023-03-03T05:30:36.800Z,23.58
2023-03-03T05:33:06.897Z,23.85
2023-03-03T05:35:37.182Z,24.67
2023-03-03T05:38:09.663Z,24.15
2023-03-03T05:40:43.928Z,22.55
2023-03-03T05:43:16.075Z,22.83
2023-03-03T05:45:43.035Z,23.08
2023-03-03T05:48:10.445Z,23.60
2023-03-03T05:50:46.507Z,22.77
2023-03-03T05:53:22.449Z,23.23
2023-03-03T05:55:54.050Z,21.40
2023-03-03T06:00:54.442Z,20.92
2023-03-03T06:03:21.349Z,21.60
2023-03-03T06:05:56.891Z,21.23
2023-03-03T06:08:24.555Z,21.35
2023-03-03T06:10:56.218Z,21.52
2023-03-03T06:13:27.225Z,20.95
2023-03-03T06:15:57.034Z,22.73
2023-03-03T06:18:31.815Z,22.40
2023-03-03T06:21:03.614Z,22.63
2023-03-03T06:23:32.162Z,22.10
2023-03-03T06:26:04.964Z,22.40
2023-03-03T06:28:44.499Z,21.85
2023-03-03T06:31:14.056Z,21.85
2023-03-03T06:33:47.478Z,21.73
2023-03-03T06:36:23.534Z,22.10
2023-03-03T06:39:01.107Z,21.75
2023-03-03T06:41:33.647Z,22.73
2023-03-03T06:44:06.121Z,21.00
2023-03-03T06:46:36.843Z,22.70
2023-03-03T06:49:09.741Z,21.58
2023-03-03T06:51:46.621Z,21.77
2023-03-03T06:54:38.726Z,23.75
2023-03-03T06:57:37.994Z,23.13
2023-03-03T07:00:31.128Z,22.92
2023-03-03T07:03:04.825Z,23.63
2023-03-03T07:05:35.109Z,24.08
2023-03-03T07:08:15.239Z,23.30
2023-03-03T07:10:44.669Z,23.45
2023-03-03T07:16:04.020Z,22.80
2023-03-03T07:18:56.114Z,23.00
2023-03-03T07:21:41.592Z,22.40
2023-03-03T07:24:32.537Z,23.77
2023-03-03T07:27:31.068Z,23.08
2023-03-03T07:30:19.211Z,23.15
2023-03-03T07:33:02.644Z,22.38
2023-03-03T07:35:50.028Z,22.23
2023-03-03T07:38:27.158Z,20.33
2023-03-03T07:41:05.932Z,20.40
2023-03-03T07:43:58.897Z,21.52
2023-03-03T07:46:46.752Z,20.83
2023-03-03T07:49:37.109Z,20.70
2023-03-03T07:52:30.870Z,20.40
2023-03-03T07:55:25.688Z,21.38
2023-03-03T07:58:02.798Z,20.10
2023-03-03T08:00:35.815Z,21.25
2023-03-03T08:03:26.735Z,20.30
2023-03-03T08:05:59.395Z,20.85
2023-03-03T08:08:46.443Z,21.45
2023-03-03T08:11:18.512Z,22.58
2023-03-03T08:13:50.404Z,22.15
2023-03-03T08:16:44.692Z,22.90
2023-03-03T08:19:13.532Z,23.80
2023-03-03T08:21:42.583Z,24.00
2023-03-03T08:24:10.663Z,25.45
2023-03-03T08:26:38.507Z,26.90
2023-03-03T08:29:05.228Z,26.73
2023-03-03T08:31:41.161Z,26.80
2023-03-03T08:34:16.352Z,23.50
2023-03-03T08:36:43.577Z,24.15
2023-03-03T08:39:13.450Z,24.60
2023-03-03T08:41:48.626Z,24.52
2023-03-03T08:44:20.122Z,24.65
2023-03-03T08:46:51.862Z,23.15
2023-03-03T08:49:20.789Z,24.77
2023-03-03T08:51:48.608Z,26.40
2023-03-03T08:54:21.227Z,26.70
2023-03-03T08:56:48.003Z,26.85
2023-03-03T08:59:17.438Z,28.13
2023-03-03T09:04:20.598Z,27.42
2023-03-03T09:06:48.555Z,28.15
2023-03-03T09:09:17.946Z,28.90
2023-03-03T09:11:48.159Z,29.77
2023-03-03T09:14:17.577Z,28.83
2023-03-03T09:16:57.413Z,30.73
2023-03-03T09:19:30.863Z,30.48
2023-03-03T09:22:12.058Z,30.02
2023-03-03T09:24:39.009Z,31.90
2023-03-03T09:27:25.607Z,29.92
2023-03-03T09:29:57.789Z,29.42
2023-03-03T09:35:21.420Z,30.15
2023-03-03T09:37:50.598Z,23.08
2023-03-03T09:40:42.640Z,22.00
2023-03-03T09:43:14.302Z,19.08
2023-03-03T09:46:07.410Z,18.75
2023-03-03T09:48:49.052Z,17.45
2023-03-03T09:51:26.881Z,16.88
2023-03-03T09:54:08.002Z,16.92
2023-03-03T09:56:42.443Z,15.75
2023-03-03T09:59:40.288Z,11.13
2023-03-03T10:02:38.378Z,14.00
2023-03-03T10:05:20.187Z,14.20
2023-03-03T10:07:55.927Z,13.07
2023-03-03T10:10:45.274Z,13.05
2023-03-03T10:16:29.057Z,11.43
2023-03-03T10:19:03.187Z,11.68
2023-03-03T10:21:43.577Z,11.13
2023-03-03T10:24:35.015Z,11.07
2023-03-03T10:27:14.380Z,11.52
2023-03-03T10:29:59.390Z,11.13
2023-03-03T10:32:35.796Z,11.13
2023-03-03T10:35:12.029Z,10.60
2023-03-03T10:37:57.169Z,10.43
2023-03-03T10:40:47.403Z,10.50
2023-03-03T10:43:32.875Z,10.05
2023-03-03T10:46:20.139Z,9.80
2023-03-03T10:49:16.857Z,9.60
2023-03-03T10:52:02.549Z,9.38
2023-03-03T10:54:55.186Z,9.63
2023-03-03T10:57:42.165Z,9.40
2023-03-03T11:00:26.363Z,9.25
2023-03-03T11:03:11.905Z,8.95
2023-03-03T11:05:57.857Z,9.90
2023-03-03T11:08:30.407Z,9.50
2023-03-03T11:11:20.830Z,10.38
2023-03-03T11:13:50.026Z,9.63
2023-03-03T11:16:32.920Z,8.93
2023-03-03T11:19:32.486Z,9.55
2023-03-03T11:22:03.651Z,8.30
2023-03-03T11:24:51.565Z,9.10
2023-03-03T11:27:28.576Z,9.13
2023-03-03T11:30:08.316Z,7.68
2023-03-03T11:32:45.343Z,8.20
2023-03-03T11:35:23.160Z,8.43
2023-03-03T11:38:15.573Z,8.65
2023-03-03T11:40:49.061Z,8.93
2023-03-03T11:43:36.643Z,9.57
2023-03-03T11:46:10.337Z,8.93
2023-03-03T11:48:49.815Z,7.82
2023-03-03T11:51:43.605Z,6.88
2023-03-03T11:54:17.998Z,6.80
2023-03-03T11:56:46.645Z,6.70
2023-03-03T11:59:32.747Z,7.05
2023-03-03T12:02:28.611Z,6.18
2023-03-03T12:05:34.049Z,6.35
2023-03-03T12:08:28.963Z,7.55
2023-03-03T12:11:13.059Z,8.00
2023-03-03T12:13:54.746Z,6.05
2023-03-03T12:16:29.964Z,6.57
2023-03-03T12:19:20.445Z,7.20
2023-03-03T12:22:18.713Z,6.22
2023-03-03T12:25:13.199Z,6.32
2023-03-03T12:27:54.097Z,6.90
2023-03-03T12:30:26.906Z,7.30
2023-03-03T12:33:03.920Z,7.40
2023-03-03T12:35:36.878Z,6.47
2023-03-03T12:38:14.985Z,7.57
2023-03-03T12:40:52.176Z,7.68
2023-03-03T12:43:46.256Z,7.75
2023-03-03T12:46:16.034Z,7.63
2023-03-03T12:48:45.159Z,7.32
2023-03-03T12:51:31.629Z,6.43
2023-03-03T12:54:00.664Z,6.68
2023-03-03T12:57:29.226Z,8.40
2023-03-03T13:00:19.246Z,7.40
2023-03-03T13:03:03.736Z,7.43
2023-03-03T13:05:45.875Z,7.38
2023-03-03T13:08:43.118Z,6.70
2023-03-03T13:11:42.594Z,5.93
2023-03-03T13:14:26.246Z,5.97
2023-03-03T13:17:02.807Z,6.63
2023-03-03T13:19:38.462Z,5.68
2023-03-03T13:22:22.159Z,5.43
2023-03-03T13:24:58.008Z,5.10
2023-03-03T13:27:28.232Z,5.07
2023-03-03T13:30:26.658Z,7.22
2023-03-03T13:32:56.318Z,6.13
2023-03-03T13:35:29.293Z,5.95
2023-03-03T13:37:59.725Z,5.97
2023-03-03T13:40:31.008Z,5.47
2023-03-03T13:43:04.391Z,5.80
2023-03-03T13:45:57.593Z,6.40
2023-03-03T13:48:45.401Z,5.88
2023-03-03T13:51:35.149Z,5.68
2023-03-03T13:54:19.276Z,7.55
2023-03-03T13:57:10.781Z,8.25
2023-03-03T13:59:58.286Z,8.55
2023-03-03T14:02:43.979Z,9.35
2023-03-03T14:05:44.660Z,9.88
2023-03-03T14:08:29.965Z,11.10
2023-03-03T14:11:27.549Z,11.40
2023-03-03T14:14:18.138Z,10.93
2023-03-03T14:16:54.670Z,11.77
2023-03-03T14:19:27.546Z,11.05
2023-03-03T14:22:16.922Z,11.75
2023-03-03T14:25:09.773Z,10.20
2023-03-03T14:27:48.700Z,10.30
2023-03-03T14:30:36.282Z,10.70
2023-03-03T14:33:12.354Z,9.60
2023-03-03T14:35:40.345Z,11.13
2023-03-03T14:38:18.941Z,11.38
2023-03-03T14:40:58.301Z,11.00
2023-03-03T14:43:27.573Z,10.88
2023-03-03T14:45:58.870Z,11.15
2023-03-03T14:48:32.828Z,10.73
2023-03-03T14:51:15.604Z,11.73
2023-03-03T14:53:46.247Z,12.02
2023-03-03T14:56:23.568Z,11.32
2023-03-03T14:58:56.328Z,11.57
2023-03-03T15:01:40.977Z,11.75
2023-03-03T15:04:20.105Z,12.70
2023-03-03T15:06:51.553Z,12.13
2023-03-03T15:09:25.005Z,13.05
2023-03-03T15:11:53.680Z,11.88
2023-03-03T15:14:37.735Z,12.73
2023-03-03T15:17:37.088Z,13.43
2023-03-03T15:20:12.655Z,13.30
2023-03-03T15:22:55.702Z,12.73
2023-03-03T15:25:42.001Z,13.13
2023-03-03T15:28:40.333Z,12.38
2023-03-03T15:31:38.353Z,12.88
2023-03-03T15:34:32.417Z,12.23
2023-03-03T15:37:10.940Z,11.95
2023-03-03T15:39:43.618Z,12.07
2023-03-03T15:42:27.395Z,11.55
2023-03-03T15:45:26.901Z,12.57
2023-03-03T15:48:19.639Z,11.68
2023-03-03T15:51:11.187Z,11.68
2023-03-03T15:54:23.057Z,12.93
2023-03-03T15:57:18.771Z,11.13
2023-03-03T15:59:50.953Z,12.43
2023-03-03T16:02:25.727Z,12.80
2023-03-03T16:05:06.666Z,12.25
2023-03-03T16:07:54.866Z,12.05
2023-03-03T16:10:35.183Z,13.43
2023-03-03T16:13:33.779Z,12.02
2023-03-03T16:16:02.970Z,13.30
2023-03-03T16:19:07.863Z,13.00
2023-03-03T16:22:08.197Z,14.05
2023-03-03T16:24:59.894Z,15.43
2023-03-03T16:27:50.655Z,15.57
2023-03-03T16:30:23.649Z,15.50
2023-03-03T16:33:19.914Z,15.57
2023-03-03T16:35:56.304Z,17.08
2023-03-03T16:38:33.935Z,15.30
2023-03-03T16:41:08.853Z,18.73
2023-03-03T16:44:09.430Z,16.50
2023-03-03T16:46:45.184Z,18.48
2023-03-03T16:49:23.448Z,17.83
2023-03-03T16:51:58.498Z,18.63
2023-03-03T16:54:30.333Z,18.92
2023-03-03T16:57:21.337Z,17.70
2023-03-03T17:00:06.907Z,19.25
2023-03-03T17:02:55.296Z,19.90
2023-03-03T17:05:44.871Z,19.42
2023-03-03T17:08:20.821Z,20.30
2023-03-03T17:10:50.931Z,19.55
2023-03-03T17:13:19.899Z,19.05
2023-03-03T17:15:53.540Z,19.50
2023-03-03T17:18:45.258Z,19.60
2023-03-03T17:21:29.795Z,18.98
2023-03-03T17:24:15.499Z,18.42
2023-03-03T17:26:52.947Z,19.48
2023-03-03T17:29:38.587Z,19.80
2023-03-03T17:32:42.747Z,17.48
2023-03-03T17:35:42.057Z,20.02
2023-03-03T17:38:34.057Z,19.95
2023-03-03T17:41:32.849Z,19.73
2023-03-03T17:44:21.079Z,19.55
2023-03-03T17:46:49.434Z,20.13
2023-03-03T17:49:41.496Z,20.42
2023-03-03T17:52:28.873Z,20.90
2023-03-03T17:55:07.287Z,21.20
2023-03-03T17:57:52.804Z,20.83
2023-03-03T18:01:15.331Z,21.73
2023-03-03T18:03:51.517Z,21.38
2023-03-03T18:07:06.103Z,21.15
2023-03-03T18:10:03.865Z,22.92
2023-03-03T18:12:45.917Z,22.63
2023-03-03T18:15:37.578Z,23.27
2023-03-03T18:18:27.473Z,22.88
2023-03-03T18:21:02.807Z,24.85
2023-03-03T18:23:44.405Z,25.00
2023-03-03T18:26:38.690Z,24.50
2023-03-03T18:29:11.430Z,24.98
2023-03-03T18:32:03.737Z,25.25
2023-03-03T18:34:40.528Z,24.88
2023-03-03T18:37:29.176Z,26.42
2023-03-03T18:40:02.354Z,27.98
2023-03-03T18:42:43.431Z,26.65
2023-03-03T18:45:33.149Z,27.35
2023-03-03T18:48:13.877Z,27.52
2023-03-03T18:50:48.605Z,26.67
2023-03-03T18:53:15.566Z,27.98
2023-03-03T18:56:00.065Z,27.65
2023-03-03T18:58:27.569Z,27.65
2023-03-03T19:01:00.429Z,27.95
2023-03-03T19:04:14.142Z,27.60
2023-03-03T19:06:43.861Z,26.30
2023-03-03T19:09:23.026Z,29.33
2023-03-03T19:11:58.501Z,27.73
2023-03-03T19:14:29.691Z,28.05
2023-03-03T19:16:58.887Z,28.30
2023-03-03T19:19:37.898Z,28.40
2023-03-03T19:22:19.897Z,27.38
2023-03-03T19:25:08.231Z,26.38
2023-03-03T19:27:44.338Z,25.27
2023-03-03T19:30:36.932Z,26.98
2023-03-03T19:33:24.030Z,23.98
2023-03-03T19:36:19.976Z,24.50
2023-03-03T19:39:12.241Z,24.20
2023-03-03T19:42:04.804Z,24.48
2023-03-03T19:44:44.334Z,23.58
2023-03-03T19:47:34.315Z,23.77
2023-03-03T19:50:45.677Z,24.88
2023-03-03T19:53:18.094Z,21.70
2023-03-03T19:56:03.559Z,23.48
2023-03-03T19:58:55.983Z,24.85
2023-03-03T20:01:34.322Z,22.92
2023-03-03T20:04:04.173Z,23.83
2023-03-03T20:06:54.369Z,22.65
2023-03-03T20:09:41.049Z,19.65
2023-03-03T20:12:13.016Z,20.58
2023-03-03T20:14:46.316Z,22.02
2023-03-03T20:17:32.275Z,22.08
2023-03-03T20:20:27.424Z,20.17
2023-03-03T20:23:24.010Z,22.05
2023-03-03T20:25:57.842Z,22.90
2023-03-03T20:28:57.652Z,22.50
2023-03-03T20:31:33.501Z,22.63
2023-03-03T20:34:35.728Z,24.48
2023-03-03T20:37:13.857Z,24.45
2023-03-03T20:40:07.658Z,23.55
2023-03-03T20:43:08.894Z,22.63
2023-03-03T20:46:09.864Z,21.48
2023-03-03T20:48:46.949Z,21.23
2023-03-03T20:51:13.686Z,21.00
2023-03-03T20:53:49.375Z,21.02
2023-03-03T20:56:34.279Z,19.48
2023-03-03T20:59:28.562Z,20.88
2023-03-03T21:02:16.671Z,20.58
2023-03-03T21:04:43.621Z,21.10
2023-03-03T21:07:24.175Z,20.58
2023-03-03T21:09:51.064Z,19.63
2023-03-03T21:12:38.734Z,20.48
2023-03-03T21:15:22.600Z,19.85
2023-03-03T21:17:51.904Z,21.30
2023-03-03T21:20:29.105Z,20.55
2023-03-03T21:22:59.903Z,20.58
2023-03-03T21:25:44.129Z,20.15
2023-03-03T21:28:17.187Z,19.23
2023-03-03T21:31:06.706Z,20.35
2023-03-03T21:33:55.601Z,19.85
2023-03-03T21:36:25.558Z,18.77
2023-03-03T21:38:53.873Z,18.95
2023-03-03T21:41:23.060Z,20.15
2023-03-03T21:43:52.331Z,19.88
2023-03-03T21:46:27.245Z,19.88
2023-03-03T21:48:56.728Z,19.02
2023-03-03T21:51:24.965Z,19.92
2023-03-03T21:53:55.505Z,19.95
2023-03-03T21:56:22.230Z,20.88
2023-03-03T21:58:51.777Z,21.45
2023-03-03T22:03:45.366Z,20.35
2023-03-03T22:06:12.485Z,22.33
2023-03-03T22:08:39.320Z,19.30
2023-03-03T22:11:06.083Z,19.95
2023-03-03T22:13:32.908Z,21.13
2023-03-03T22:15:59.692Z,19.90
2023-03-03T22:18:26.489Z,20.90
2023-03-03T22:20:55.491Z,21.58
2023-03-03T22:23:22.443Z,19.67
2023-03-03T22:25:49.291Z,20.25
2023-03-03T22:28:18.372Z,20.75
2023-03-03T22:30:49.980Z,20.42
2023-03-03T22:33:16.778Z,20.83
2023-03-03T22:35:43.928Z,22.33
2023-03-03T22:40:44.817Z,18.92
2023-03-03T22:43:16.297Z,19.65
2023-03-03T22:45:45.400Z,20.30
2023-03-03T22:48:14.639Z,19.80
2023-03-03T22:50:45.581Z,21.00
2023-03-03T22:53:12.343Z,20.00
2023-03-03T22:55:39.171Z,20.30
2023-03-03T22:58:09.310Z,20.17
2023-03-03T23:00:38.532Z,21.08
2023-03-03T23:03:11.999Z,19.67
2023-03-03T23:05:39.026Z,21.00
2023-03-03T23:08:12.122Z,19.02
2023-03-03T23:10:39.016Z,19.92
2023-03-03T23:13:05.799Z,19.58
2023-03-03T23:15:33.214Z,20.75
2023-03-03T23:20:31.833Z,20.80
2023-03-03T23:22:59.092Z,21.10
2023-03-03T23:25:30.638Z,21.33
2023-03-03T23:27:57.953Z,19.15
2023-03-03T23:30:27.207Z,19.83
2023-03-03T23:32:54.265Z,21.63
2023-03-03T23:35:21.214Z,19.42
2023-03-03T23:37:50.844Z,19.98
2023-03-03T23:40:18.278Z,20.60
2023-03-03T23:42:45.207Z,19.10
2023-03-03T23:45:14.843Z,19.45
2023-03-03T23:47:41.997Z,19.65
2023-03-03T23:50:14.378Z,18.92
2023-03-03T23:52:44.362Z,19.58
2023-03-03T23:55:13.484Z,19.50
2023-03-03T23:57:40.299Z,17.48
